sensor_id;sensor_type;location;lat;lon;timestamp;P1;durP1;ratioP1;P2;durP2;ratioP2
17251;SDS011;8742;51.716;8.790;2024-03-06T00:00:01;67.60;;;30.77;;
17251;SDS011;8742;51.716;8.790;2024-03-06T00:02:29;64.23;;;29.97;;
17251;SDS011;8742;51.716;8.790;2024-03-06T00:04:56;66.37;;;30.30;;
17251;SDS011;8742;51.716;8.790;2024-03-06T00:07:24;67.03;;;29.57;;
17251;SDS011;8742;51.716;8.790;2024-03-06T00:09:51;62.70;;;28.80;;
17251;SDS011;8742;51.716;8.790;2024-03-06T00:12:19;63.97;;;31.10;;
17251;SDS011;8742;51.716;8.790;2024-03-06T00:14:46;64.53;;;29.63;;
17251;SDS011;8742;51.716;8.790;2024-03-06T00:17:13;67.60;;;31.40;;
17251;SDS011;8742;51.716;8.790;2024-03-06T00:19:42;71.20;;;31.83;;
17251;SDS011;8742;51.716;8.790;2024-03-06T00:22:09;66.60;;;29.97;;
17251;SDS011;8742;51.716;8.790;2024-03-06T00:24:36;59.77;;;29.93;;
17251;SDS011;8742;51.716;8.790;2024-03-06T00:27:03;65.77;;;29.40;;
17251;SDS011;8742;51.716;8.790;2024-03-06T00:29:31;67.73;;;29.53;;
17251;SDS011;8742;51.716;8.790;2024-03-06T00:31:58;63.00;;;29.30;;
17251;SDS011;8742;51.716;8.790;2024-03-06T00:34:25;67.73;;;30.43;;
17251;SDS011;8742;51.716;8.790;2024-03-06T00:36:54;72.77;;;31.33;;
17251;SDS011;8742;51.716;8.790;2024-03-06T00:39:20;68.43;;;32.53;;
17251;SDS011;8742;51.716;8.790;2024-03-06T00:41:47;72.90;;;32.57;;
17251;SDS011;8742;51.716;8.790;2024-03-06T00:44:15;69.53;;;32.87;;
17251;SDS011;8742;51.716;8.790;2024-03-06T00:46:42;71.27;;;32.57;;
17251;SDS011;8742;51.716;8.790;2024-03-06T00:49:09;62.13;;;31.00;;
17251;SDS011;8742;51.716;8.790;2024-03-06T00:51:36;71.67;;;32.53;;
17251;SDS011;8742;51.716;8.790;2024-03-06T00:54:04;72.37;;;32.90;;
17251;SDS011;8742;51.716;8.790;2024-03-06T00:56:31;68.40;;;32.43;;
17251;SDS011;8742;51.716;8.790;2024-03-06T00:58:58;67.80;;;31.27;;
17251;SDS011;8742;51.716;8.790;2024-03-06T01:01:25;79.40;;;32.60;;
17251;SDS011;8742;51.716;8.790;2024-03-06T01:03:52;77.63;;;33.93;;
17251;SDS011;8742;51.716;8.790;2024-03-06T01:06:20;78.00;;;33.17;;
17251;SDS011;8742;51.716;8.790;2024-03-06T01:08:47;68.27;;;32.17;;
17251;SDS011;8742;51.716;8.790;2024-03-06T01:11:15;69.23;;;33.97;;
17251;SDS011;8742;51.716;8.790;2024-03-06T01:13:42;69.83;;;31.63;;
17251;SDS011;8742;51.716;8.790;2024-03-06T01:16:09;71.07;;;34.40;;
17251;SDS011;8742;51.716;8.790;2024-03-06T01:18:36;78.87;;;33.33;;
17251;SDS011;8742;51.716;8.790;2024-03-06T01:21:03;72.77;;;32.70;;
17251;SDS011;8742;51.716;8.790;2024-03-06T01:23:30;74.00;;;33.20;;
17251;SDS011;8742;51.716;8.790;2024-03-06T01:25:57;67.93;;;31.77;;
17251;SDS011;8742;51.716;8.790;2024-03-06T01:28:25;72.67;;;33.87;;
17251;SDS011;8742;51.716;8.790;2024-03-06T01:30:52;65.67;;;31.37;;
17251;SDS011;8742;51.716;8.790;2024-03-06T01:33:19;72.77;;;32.80;;
17251;SDS011;8742;51.716;8.790;2024-03-06T01:35:46;66.00;;;30.43;;
17251;SDS011;8742;51.716;8.790;2024-03-06T01:38:13;73.90;;;32.23;;
17251;SDS011;8742;51.716;8.790;2024-03-06T01:40:42;77.13;;;33.73;;
17251;SDS011;8742;51.716;8.790;2024-03-06T01:43:17;74.40;;;32.47;;
17251;SDS011;8742;51.716;8.790;2024-03-06T01:45:46;71.57;;;31.43;;
17251;SDS011;8742;51.716;8.790;2024-03-06T01:48:14;71.17;;;32.30;;
17251;SDS011;8742;51.716;8.790;2024-03-06T01:50:42;74.23;;;32.87;;
17251;SDS011;8742;51.716;8.790;2024-03-06T01:53:09;73.73;;;34.07;;
17251;SDS011;8742;51.716;8.790;2024-03-06T01:55:36;79.93;;;34.67;;
17251;SDS011;8742;51.716;8.790;2024-03-06T01:58:03;80.40;;;33.80;;
17251;SDS011;8742;51.716;8.790;2024-03-06T02:00:31;81.20;;;34.93;;
17251;SDS011;8742;51.716;8.790;2024-03-06T02:03:00;86.77;;;36.93;;
17251;SDS011;8742;51.716;8.790;2024-03-06T02:05:27;76.03;;;35.20;;
17251;SDS011;8742;51.716;8.790;2024-03-06T02:07:56;75.67;;;35.47;;
17251;SDS011;8742;51.716;8.790;2024-03-06T02:10:24;82.50;;;37.00;;
17251;SDS011;8742;51.716;8.790;2024-03-06T02:12:52;85.50;;;37.37;;
17251;SDS011;8742;51.716;8.790;2024-03-06T02:15:19;88.87;;;38.93;;
17251;SDS011;8742;51.716;8.790;2024-03-06T02:17:46;84.37;;;38.03;;
17251;SDS011;8742;51.716;8.790;2024-03-06T02:20:15;87.70;;;38.13;;
17251;SDS011;8742;51.716;8.790;2024-03-06T02:22:43;85.57;;;37.93;;
17251;SDS011;8742;51.716;8.790;2024-03-06T02:25:11;90.57;;;39.20;;
17251;SDS011;8742;51.716;8.790;2024-03-06T02:27:40;83.57;;;38.20;;
17251;SDS011;8742;51.716;8.790;2024-03-06T02:30:07;90.77;;;40.03;;
17251;SDS011;8742;51.716;8.790;2024-03-06T02:32:34;94.33;;;37.87;;
17251;SDS011;8742;51.716;8.790;2024-03-06T02:35:01;88.07;;;38.67;;
17251;SDS011;8742;51.716;8.790;2024-03-06T02:37:33;92.53;;;39.90;;
17251;SDS011;8742;51.716;8.790;2024-03-06T02:40:01;89.83;;;40.53;;
17251;SDS011;8742;51.716;8.790;2024-03-06T02:42:32;84.67;;;38.87;;
17251;SDS011;8742;51.716;8.790;2024-03-06T02:44:59;91.53;;;39.60;;
17251;SDS011;8742;51.716;8.790;2024-03-06T02:47:26;88.13;;;39.57;;
17251;SDS011;8742;51.716;8.790;2024-03-06T02:49:53;91.67;;;39.83;;
17251;SDS011;8742;51.716;8.790;2024-03-06T02:52:19;100.20;;;42.07;;
17251;SDS011;8742;51.716;8.790;2024-03-06T02:54:46;94.40;;;40.27;;
17251;SDS011;8742;51.716;8.790;2024-03-06T02:57:14;92.33;;;39.67;;
17251;SDS011;8742;51.716;8.790;2024-03-06T02:59:42;90.90;;;41.00;;
17251;SDS011;8742;51.716;8.790;2024-03-06T03:02:09;88.23;;;37.40;;
17251;SDS011;8742;51.716;8.790;2024-03-06T03:04:35;89.77;;;41.50;;
17251;SDS011;8742;51.716;8.790;2024-03-06T03:07:02;95.73;;;40.73;;
17251;SDS011;8742;51.716;8.790;2024-03-06T03:09:30;93.10;;;40.10;;
17251;SDS011;8742;51.716;8.790;2024-03-06T03:11:57;100.20;;;42.23;;
17251;SDS011;8742;51.716;8.790;2024-03-06T03:14:25;108.00;;;41.77;;
17251;SDS011;8742;51.716;8.790;2024-03-06T03:16:52;93.33;;;40.30;;
17251;SDS011;8742;51.716;8.790;2024-03-06T03:19:19;93.90;;;40.07;;
17251;SDS011;8742;51.716;8.790;2024-03-06T03:21:46;96.00;;;41.60;;
17251;SDS011;8742;51.716;8.790;2024-03-06T03:24:13;95.60;;;41.40;;
17251;SDS011;8742;51.716;8.790;2024-03-06T03:26:51;94.50;;;40.47;;
17251;SDS011;8742;51.716;8.790;2024-03-06T03:29:18;85.47;;;39.77;;
17251;SDS011;8742;51.716;8.790;2024-03-06T03:31:47;93.60;;;40.77;;
17251;SDS011;8742;51.716;8.790;2024-03-06T03:34:14;96.30;;;41.07;;
17251;SDS011;8742;51.716;8.790;2024-03-06T03:36:41;93.13;;;42.60;;
17251;SDS011;8742;51.716;8.790;2024-03-06T03:39:09;96.37;;;41.37;;
17251;SDS011;8742;51.716;8.790;2024-03-06T03:41:42;97.67;;;40.53;;
17251;SDS011;8742;51.716;8.790;2024-03-06T03:44:10;91.00;;;41.93;;
17251;SDS011;8742;51.716;8.790;2024-03-06T03:46:37;98.67;;;42.10;;
17251;SDS011;8742;51.716;8.790;2024-03-06T03:49:07;105.57;;;43.70;;
17251;SDS011;8742;51.716;8.790;2024-03-06T03:51:35;94.57;;;42.13;;
17251;SDS011;8742;51.716;8.790;2024-03-06T03:54:01;101.57;;;44.27;;
17251;SDS011;8742;51.716;8.790;2024-03-06T03:56:28;105.70;;;43.97;;
17251;SDS011;8742;51.716;8.790;2024-03-06T03:58:55;108.30;;;45.13;;
17251;SDS011;8742;51.716;8.790;2024-03-06T04:01:23;104.10;;;45.00;;
17251;SDS011;8742;51.716;8.790;2024-03-06T04:03:50;110.07;;;45.03;;
17251;SDS011;8742;51.716;8.790;2024-03-06T04:06:18;111.27;;;45.47;;
17251;SDS011;8742;51.716;8.790;2024-03-06T04:08:45;107.60;;;44.73;;
17251;SDS011;8742;51.716;8.790;2024-03-06T04:11:12;105.93;;;45.10;;
17251;SDS011;8742;51.716;8.790;2024-03-06T04:13:39;116.23;;;46.30;;
17251;SDS011;8742;51.716;8.790;2024-03-06T04:16:06;111.30;;;47.67;;
17251;SDS011;8742;51.716;8.790;2024-03-06T04:18:44;116.50;;;46.83;;
17251;SDS011;8742;51.716;8.790;2024-03-06T04:21:12;125.47;;;48.23;;
17251;SDS011;8742;51.716;8.790;2024-03-06T04:23:41;116.23;;;46.03;;
17251;SDS011;8742;51.716;8.790;2024-03-06T04:26:09;115.20;;;45.97;;
17251;SDS011;8742;51.716;8.790;2024-03-06T04:28:36;122.73;;;48.37;;
17251;SDS011;8742;51.716;8.790;2024-03-06T04:31:02;112.87;;;47.83;;
17251;SDS011;8742;51.716;8.790;2024-03-06T04:33:30;124.83;;;50.30;;
17251;SDS011;8742;51.716;8.790;2024-03-06T04:35:57;121.90;;;49.50;;
17251;SDS011;8742;51.716;8.790;2024-03-06T04:38:24;119.37;;;47.87;;
17251;SDS011;8742;51.716;8.790;2024-03-06T04:41:00;118.90;;;48.63;;
17251;SDS011;8742;51.716;8.790;2024-03-06T04:43:27;120.33;;;48.43;;
17251;SDS011;8742;51.716;8.790;2024-03-06T04:45:55;125.40;;;48.90;;
17251;SDS011;8742;51.716;8.790;2024-03-06T04:48:22;110.67;;;47.70;;
17251;SDS011;8742;51.716;8.790;2024-03-06T04:50:48;122.37;;;50.67;;
17251;SDS011;8742;51.716;8.790;2024-03-06T04:53:15;120.30;;;49.07;;
17251;SDS011;8742;51.716;8.790;2024-03-06T04:55:42;122.90;;;49.53;;
17251;SDS011;8742;51.716;8.790;2024-03-06T04:58:11;122.10;;;48.60;;
17251;SDS011;8742;51.716;8.790;2024-03-06T05:00:38;126.37;;;47.87;;
17251;SDS011;8742;51.716;8.790;2024-03-06T05:03:05;104.57;;;45.33;;
17251;SDS011;8742;51.716;8.790;2024-03-06T05:05:32;104.40;;;44.53;;
17251;SDS011;8742;51.716;8.790;2024-03-06T05:07:59;95.80;;;43.20;;
17251;SDS011;8742;51.716;8.790;2024-03-06T05:10:26;104.97;;;42.03;;
17251;SDS011;8742;51.716;8.790;2024-03-06T05:13:06;97.50;;;41.10;;
17251;SDS011;8742;51.716;8.790;2024-03-06T05:15:35;97.10;;;40.03;;
17251;SDS011;8742;51.716;8.790;2024-03-06T05:18:02;92.10;;;39.63;;
17251;SDS011;8742;51.716;8.790;2024-03-06T05:20:29;81.87;;;37.23;;
17251;SDS011;8742;51.716;8.790;2024-03-06T05:22:57;88.97;;;37.90;;
17251;SDS011;8742;51.716;8.790;2024-03-06T05:25:24;88.73;;;36.47;;
17251;SDS011;8742;51.716;8.790;2024-03-06T05:27:51;78.77;;;36.27;;
17251;SDS011;8742;51.716;8.790;2024-03-06T05:30:18;87.67;;;38.00;;
17251;SDS011;8742;51.716;8.790;2024-03-06T05:32:49;81.97;;;37.37;;
17251;SDS011;8742;51.716;8.790;2024-03-06T05:35:30;84.97;;;38.00;;
17251;SDS011;8742;51.716;8.790;2024-03-06T05:37:57;85.67;;;36.87;;
17251;SDS011;8742;51.716;8.790;2024-03-06T05:40:24;85.40;;;36.90;;
17251;SDS011;8742;51.716;8.790;2024-03-06T05:42:51;80.57;;;37.10;;
17251;SDS011;8742;51.716;8.790;2024-03-06T05:45:18;69.73;;;35.23;;
17251;SDS011;8742;51.716;8.790;2024-03-06T05:47:46;83.17;;;37.73;;
17251;SDS011;8742;51.716;8.790;2024-03-06T05:50:13;75.87;;;36.43;;
17251;SDS011;8742;51.716;8.790;2024-03-06T05:52:40;77.77;;;36.20;;
17251;SDS011;8742;51.716;8.790;2024-03-06T05:55:07;79.57;;;36.00;;
17251;SDS011;8742;51.716;8.790;2024-03-06T05:57:35;78.87;;;36.90;;
17251;SDS011;8742;51.716;8.790;2024-03-06T06:00:02;73.47;;;34.97;;
17251;SDS011;8742;51.716;8.790;2024-03-06T06:02:37;81.00;;;35.73;;
17251;SDS011;8742;51.716;8.790;2024-03-06T06:05:06;84.37;;;37.30;;
17251;SDS011;8742;51.716;8.790;2024-03-06T06:07:33;83.60;;;38.23;;
17251;SDS011;8742;51.716;8.790;2024-03-06T06:10:00;81.10;;;37.27;;
17251;SDS011;8742;51.716;8.790;2024-03-06T06:12:27;83.20;;;36.60;;
17251;SDS011;8742;51.716;8.790;2024-03-06T06:14:54;81.77;;;35.90;;
17251;SDS011;8742;51.716;8.790;2024-03-06T06:17:21;90.00;;;38.60;;
17251;SDS011;8742;51.716;8.790;2024-03-06T06:19:48;75.60;;;36.70;;
17251;SDS011;8742;51.716;8.790;2024-03-06T06:22:16;84.70;;;36.90;;
17251;SDS011;8742;51.716;8.790;2024-03-06T06:24:43;81.53;;;38.20;;
17251;SDS011;8742;51.716;8.790;2024-03-06T06:27:11;78.03;;;36.03;;
17251;SDS011;8742;51.716;8.790;2024-03-06T06:29:40;84.57;;;38.50;;
17251;SDS011;8742;51.716;8.790;2024-03-06T06:32:07;88.03;;;38.30;;
17251;SDS011;8742;51.716;8.790;2024-03-06T06:34:34;91.37;;;39.60;;
17251;SDS011;8742;51.716;8.790;2024-03-06T06:37:01;78.93;;;36.07;;
17251;SDS011;8742;51.716;8.790;2024-03-06T06:39:29;79.80;;;38.80;;
17251;SDS011;8742;51.716;8.790;2024-03-06T06:41:59;85.57;;;38.20;;
17251;SDS011;8742;51.716;8.790;2024-03-06T06:44:26;82.90;;;39.03;;
17251;SDS011;8742;51.716;8.790;2024-03-06T06:46:53;87.80;;;39.40;;
17251;SDS011;8742;51.716;8.790;2024-03-06T06:49:23;87.63;;;40.27;;
17251;SDS011;8742;51.716;8.790;2024-03-06T06:51:50;84.00;;;39.33;;
17251;SDS011;8742;51.716;8.790;2024-03-06T06:54:17;83.03;;;39.00;;
17251;SDS011;8742;51.716;8.790;2024-03-06T06:56:46;79.73;;;39.83;;
17251;SDS011;8742;51.716;8.790;2024-03-06T06:59:13;86.10;;;37.07;;
17251;SDS011;8742;51.716;8.790;2024-03-06T07:01:40;78.97;;;38.13;;
17251;SDS011;8742;51.716;8.790;2024-03-06T07:04:06;90.43;;;40.60;;
17251;SDS011;8742;51.716;8.790;2024-03-06T07:06:33;86.40;;;37.87;;
17251;SDS011;8742;51.716;8.790;2024-03-06T07:09:00;81.20;;;39.70;;
17251;SDS011;8742;51.716;8.790;2024-03-06T07:11:30;85.57;;;38.77;;
17251;SDS011;8742;51.716;8.790;2024-03-06T07:13:58;79.27;;;37.13;;
17251;SDS011;8742;51.716;8.790;2024-03-06T07:16:25;82.27;;;40.33;;
17251;SDS011;8742;51.716;8.790;2024-03-06T07:18:52;81.13;;;38.67;;
17251;SDS011;8742;51.716;8.790;2024-03-06T07:21:19;75.60;;;38.50;;
17251;SDS011;8742;51.716;8.790;2024-03-06T07:23:46;76.80;;;37.80;;
17251;SDS011;8742;51.716;8.790;2024-03-06T07:26:13;77.67;;;38.40;;
17251;SDS011;8742;51.716;8.790;2024-03-06T07:28:40;75.63;;;36.57;;
17251;SDS011;8742;51.716;8.790;2024-03-06T07:31:09;80.67;;;38.63;;
17251;SDS011;8742;51.716;8.790;2024-03-06T07:33:36;79.67;;;37.57;;
17251;SDS011;8742;51.716;8.790;2024-03-06T07:36:03;81.73;;;38.13;;
17251;SDS011;8742;51.716;8.790;2024-03-06T07:38:31;78.90;;;40.03;;
17251;SDS011;8742;51.716;8.790;2024-03-06T07:40:58;76.60;;;37.63;;
17251;SDS011;8742;51.716;8.790;2024-03-06T07:43:25;75.57;;;36.43;;
17251;SDS011;8742;51.716;8.790;2024-03-06T07:45:52;77.93;;;36.47;;
17251;SDS011;8742;51.716;8.790;2024-03-06T07:48:20;68.77;;;35.97;;
17251;SDS011;8742;51.716;8.790;2024-03-06T07:51:01;67.00;;;34.33;;
17251;SDS011;8742;51.716;8.790;2024-03-06T07:53:28;77.53;;;36.43;;
17251;SDS011;8742;51.716;8.790;2024-03-06T07:55:55;83.97;;;38.80;;
17251;SDS011;8742;51.716;8.790;2024-03-06T07:58:24;78.57;;;39.20;;
17251;SDS011;8742;51.716;8.790;2024-03-06T08:00:57;75.93;;;37.73;;
17251;SDS011;8742;51.716;8.790;2024-03-06T08:03:49;79.97;;;37.83;;
17251;SDS011;8742;51.716;8.790;2024-03-06T08:06:23;73.93;;;37.83;;
17251;SDS011;8742;51.716;8.790;2024-03-06T08:08:51;82.90;;;38.27;;
17251;SDS011;8742;51.716;8.790;2024-03-06T08:11:19;77.73;;;37.17;;
17251;SDS011;8742;51.716;8.790;2024-03-06T08:13:48;74.47;;;38.33;;
17251;SDS011;8742;51.716;8.790;2024-03-06T08:16:16;85.07;;;37.80;;
17251;SDS011;8742;51.716;8.790;2024-03-06T08:18:50;79.87;;;38.10;;
17251;SDS011;8742;51.716;8.790;2024-03-06T08:21:20;78.97;;;37.77;;
17251;SDS011;8742;51.716;8.790;2024-03-06T08:23:48;84.20;;;39.13;;
17251;SDS011;8742;51.716;8.790;2024-03-06T08:26:14;75.43;;;36.40;;
17251;SDS011;8742;51.716;8.790;2024-03-06T08:28:41;78.57;;;37.67;;
17251;SDS011;8742;51.716;8.790;2024-03-06T08:31:08;80.47;;;37.43;;
17251;SDS011;8742;51.716;8.790;2024-03-06T08:33:35;77.83;;;38.83;;
17251;SDS011;8742;51.716;8.790;2024-03-06T08:36:04;74.83;;;36.33;;
17251;SDS011;8742;51.716;8.790;2024-03-06T08:38:31;83.23;;;39.33;;
17251;SDS011;8742;51.716;8.790;2024-03-06T08:40:58;70.80;;;35.43;;
17251;SDS011;8742;51.716;8.790;2024-03-06T08:43:25;78.10;;;37.30;;
17251;SDS011;8742;51.716;8.790;2024-03-06T08:45:52;70.97;;;37.00;;
17251;SDS011;8742;51.716;8.790;2024-03-06T08:48:20;78.97;;;36.93;;
17251;SDS011;8742;51.716;8.790;2024-03-06T08:50:47;73.60;;;36.57;;
17251;SDS011;8742;51.716;8.790;2024-03-06T08:53:17;75.70;;;35.50;;
17251;SDS011;8742;51.716;8.790;2024-03-06T08:55:44;71.63;;;35.80;;
17251;SDS011;8742;51.716;8.790;2024-03-06T08:58:11;76.50;;;36.27;;
17251;SDS011;8742;51.716;8.790;2024-03-06T09:00:39;73.20;;;36.30;;
17251;SDS011;8742;51.716;8.790;2024-03-06T09:03:06;72.90;;;36.43;;
17251;SDS011;8742;51.716;8.790;2024-03-06T09:05:33;69.73;;;35.13;;
17251;SDS011;8742;51.716;8.790;2024-03-06T09:08:00;82.17;;;36.60;;
17251;SDS011;8742;51.716;8.790;2024-03-06T09:10:28;72.93;;;35.67;;
17251;SDS011;8742;51.716;8.790;2024-03-06T09:12:56;69.60;;;35.23;;
17251;SDS011;8742;51.716;8.790;2024-03-06T09:15:23;74.80;;;35.67;;
17251;SDS011;8742;51.716;8.790;2024-03-06T09:17:50;70.37;;;35.33;;
17251;SDS011;8742;51.716;8.790;2024-03-06T09:20:17;73.47;;;34.17;;
17251;SDS011;8742;51.716;8.790;2024-03-06T09:22:44;71.47;;;36.50;;
17251;SDS011;8742;51.716;8.790;2024-03-06T09:25:11;72.83;;;36.03;;
17251;SDS011;8742;51.716;8.790;2024-03-06T09:27:41;67.97;;;35.17;;
17251;SDS011;8742;51.716;8.790;2024-03-06T09:30:08;73.60;;;35.03;;
17251;SDS011;8742;51.716;8.790;2024-03-06T09:32:38;78.80;;;36.73;;
17251;SDS011;8742;51.716;8.790;2024-03-06T09:35:05;69.10;;;34.50;;
17251;SDS011;8742;51.716;8.790;2024-03-06T09:37:33;66.70;;;34.07;;
17251;SDS011;8742;51.716;8.790;2024-03-06T09:40:00;67.60;;;34.30;;
17251;SDS011;8742;51.716;8.790;2024-03-06T09:42:28;73.33;;;33.17;;
17251;SDS011;8742;51.716;8.790;2024-03-06T09:44:56;71.23;;;36.57;;
17251;SDS011;8742;51.716;8.790;2024-03-06T09:47:23;64.33;;;34.03;;
17251;SDS011;8742;51.716;8.790;2024-03-06T09:49:54;70.50;;;34.63;;
17251;SDS011;8742;51.716;8.790;2024-03-06T09:52:22;68.97;;;36.47;;
17251;SDS011;8742;51.716;8.790;2024-03-06T09:54:50;71.97;;;35.33;;
17251;SDS011;8742;51.716;8.790;2024-03-06T09:57:19;64.50;;;34.83;;
17251;SDS011;8742;51.716;8.790;2024-03-06T09:59:46;69.07;;;35.20;;
17251;SDS011;8742;51.716;8.790;2024-03-06T10:02:18;68.37;;;35.10;;
17251;SDS011;8742;51.716;8.790;2024-03-06T10:04:56;67.03;;;34.97;;
17251;SDS011;8742;51.716;8.790;2024-03-06T10:07:23;74.10;;;37.10;;
17251;SDS011;8742;51.716;8.790;2024-03-06T10:09:52;71.17;;;35.90;;
17251;SDS011;8742;51.716;8.790;2024-03-06T10:12:19;69.60;;;36.03;;
17251;SDS011;8742;51.716;8.790;2024-03-06T10:14:48;78.53;;;35.43;;
17251;SDS011;8742;51.716;8.790;2024-03-06T10:17:20;79.33;;;37.77;;
17251;SDS011;8742;51.716;8.790;2024-03-06T10:19:48;77.03;;;37.67;;
17251;SDS011;8742;51.716;8.790;2024-03-06T10:22:17;74.60;;;35.50;;
17251;SDS011;8742;51.716;8.790;2024-03-06T10:24:45;75.53;;;34.93;;
17251;SDS011;8742;51.716;8.790;2024-03-06T10:27:14;71.43;;;36.30;;
17251;SDS011;8742;51.716;8.790;2024-03-06T10:29:43;71.10;;;34.00;;
17251;SDS011;8742;51.716;8.790;2024-03-06T10:32:10;63.60;;;30.80;;
17251;SDS011;8742;51.716;8.790;2024-03-06T10:34:44;59.40;;;31.70;;
17251;SDS011;8742;51.716;8.790;2024-03-06T10:37:11;66.97;;;33.00;;
17251;SDS011;8742;51.716;8.790;2024-03-06T10:39:40;60.27;;;32.07;;
17251;SDS011;8742;51.716;8.790;2024-03-06T10:42:09;62.60;;;32.77;;
17251;SDS011;8742;51.716;8.790;2024-03-06T10:44:41;67.80;;;34.10;;
17251;SDS011;8742;51.716;8.790;2024-03-06T10:47:15;61.80;;;33.93;;
17251;SDS011;8742;51.716;8.790;2024-03-06T10:49:44;63.27;;;33.87;;
17251;SDS011;8742;51.716;8.790;2024-03-06T10:52:12;61.97;;;33.93;;
17251;SDS011;8742;51.716;8.790;2024-03-06T10:54:41;57.50;;;33.57;;
17251;SDS011;8742;51.716;8.790;2024-03-06T10:57:11;65.13;;;34.67;;
17251;SDS011;8742;51.716;8.790;2024-03-06T10:59:39;61.97;;;33.93;;
17251;SDS011;8742;51.716;8.790;2024-03-06T11:02:07;60.63;;;32.23;;
17251;SDS011;8742;51.716;8.790;2024-03-06T11:04:37;62.57;;;33.73;;
17251;SDS011;8742;51.716;8.790;2024-03-06T11:07:07;63.60;;;32.10;;
17251;SDS011;8742;51.716;8.790;2024-03-06T11:09:35;56.00;;;32.30;;
17251;SDS011;8742;51.716;8.790;2024-03-06T11:12:03;58.63;;;32.37;;
17251;SDS011;8742;51.716;8.790;2024-03-06T11:14:32;55.30;;;32.27;;
17251;SDS011;8742;51.716;8.790;2024-03-06T11:17:02;53.43;;;27.97;;
17251;SDS011;8742;51.716;8.790;2024-03-06T11:19:31;61.80;;;31.80;;
17251;SDS011;8742;51.716;8.790;2024-03-06T11:22:20;59.77;;;31.93;;
17251;SDS011;8742;51.716;8.790;2024-03-06T11:28:38;56.90;;;30.27;;
17251;SDS011;8742;51.716;8.790;2024-03-06T11:31:06;54.77;;;31.77;;
17251;SDS011;8742;51.716;8.790;2024-03-06T11:33:38;51.53;;;31.30;;
17251;SDS011;8742;51.716;8.790;2024-03-06T11:36:14;61.57;;;32.23;;
17251;SDS011;8742;51.716;8.790;2024-03-06T11:38:47;57.57;;;30.40;;
17251;SDS011;8742;51.716;8.790;2024-03-06T11:41:19;58.63;;;32.37;;
17251;SDS011;8742;51.716;8.790;2024-03-06T11:43:48;55.30;;;29.37;;
17251;SDS011;8742;51.716;8.790;2024-03-06T11:46:15;57.63;;;30.13;;
17251;SDS011;8742;51.716;8.790;2024-03-06T11:48:43;59.50;;;30.80;;
17251;SDS011;8742;51.716;8.790;2024-03-06T11:51:17;56.27;;;31.30;;
17251;SDS011;8742;51.716;8.790;2024-03-06T11:53:44;58.90;;;31.30;;
17251;SDS011;8742;51.716;8.790;2024-03-06T11:56:14;62.70;;;31.37;;
17251;SDS011;8742;51.716;8.790;2024-03-06T11:58:41;58.33;;;30.70;;
17251;SDS011;8742;51.716;8.790;2024-03-06T12:01:07;62.90;;;31.17;;
17251;SDS011;8742;51.716;8.790;2024-03-06T12:03:34;53.50;;;28.47;;
17251;SDS011;8742;51.716;8.790;2024-03-06T12:06:02;49.97;;;26.37;;
17251;SDS011;8742;51.716;8.790;2024-03-06T12:08:29;53.33;;;26.40;;
17251;SDS011;8742;51.716;8.790;2024-03-06T12:10:56;60.37;;;28.93;;
17251;SDS011;8742;51.716;8.790;2024-03-06T12:13:25;48.30;;;25.93;;
17251;SDS011;8742;51.716;8.790;2024-03-06T12:15:55;49.40;;;26.77;;
17251;SDS011;8742;51.716;8.790;2024-03-06T12:18:22;57.73;;;28.63;;
17251;SDS011;8742;51.716;8.790;2024-03-06T12:20:50;55.00;;;28.57;;
17251;SDS011;8742;51.716;8.790;2024-03-06T12:23:20;52.30;;;27.40;;
17251;SDS011;8742;51.716;8.790;2024-03-06T12:25:48;49.93;;;26.97;;
17251;SDS011;8742;51.716;8.790;2024-03-06T12:28:15;56.47;;;29.33;;
17251;SDS011;8742;51.716;8.790;2024-03-06T12:30:44;53.77;;;27.07;;
17251;SDS011;8742;51.716;8.790;2024-03-06T12:33:11;58.47;;;27.77;;
17251;SDS011;8742;51.716;8.790;2024-03-06T12:35:43;54.43;;;27.83;;
17251;SDS011;8742;51.716;8.790;2024-03-06T12:38:13;59.10;;;28.37;;
17251;SDS011;8742;51.716;8.790;2024-03-06T12:40:40;50.53;;;27.07;;
17251;SDS011;8742;51.716;8.790;2024-03-06T12:43:07;48.40;;;25.83;;
17251;SDS011;8742;51.716;8.790;2024-03-06T12:45:34;49.27;;;26.27;;
17251;SDS011;8742;51.716;8.790;2024-03-06T12:48:04;51.30;;;26.70;;
17251;SDS011;8742;51.716;8.790;2024-03-06T12:50:31;50.00;;;26.13;;
17251;SDS011;8742;51.716;8.790;2024-03-06T12:52:58;53.37;;;26.60;;
17251;SDS011;8742;51.716;8.790;2024-03-06T12:55:25;47.83;;;25.70;;
17251;SDS011;8742;51.716;8.790;2024-03-06T12:57:52;47.27;;;24.93;;
17251;SDS011;8742;51.716;8.790;2024-03-06T13:00:19;52.10;;;23.97;;
17251;SDS011;8742;51.716;8.790;2024-03-06T13:02:46;49.67;;;26.17;;
17251;SDS011;8742;51.716;8.790;2024-03-06T13:05:15;49.93;;;25.07;;
17251;SDS011;8742;51.716;8.790;2024-03-06T13:07:42;44.70;;;23.60;;
17251;SDS011;8742;51.716;8.790;2024-03-06T13:10:10;44.03;;;22.50;;
17251;SDS011;8742;51.716;8.790;2024-03-06T13:12:38;45.57;;;23.50;;
17251;SDS011;8742;51.716;8.790;2024-03-06T13:15:05;43.83;;;22.63;;
17251;SDS011;8742;51.716;8.790;2024-03-06T13:17:33;38.03;;;21.53;;
17251;SDS011;8742;51.716;8.790;2024-03-06T13:20:00;43.10;;;22.97;;
17251;SDS011;8742;51.716;8.790;2024-03-06T13:22:29;39.00;;;21.97;;
17251;SDS011;8742;51.716;8.790;2024-03-06T13:24:56;40.53;;;21.63;;
17251;SDS011;8742;51.716;8.790;2024-03-06T13:27:24;41.73;;;21.80;;
17251;SDS011;8742;51.716;8.790;2024-03-06T13:29:50;41.97;;;21.07;;
17251;SDS011;8742;51.716;8.790;2024-03-06T13:32:17;44.77;;;23.10;;
17251;SDS011;8742;51.716;8.790;2024-03-06T13:34:44;48.57;;;24.93;;
17251;SDS011;8742;51.716;8.790;2024-03-06T13:37:12;48.87;;;25.27;;
17251;SDS011;8742;51.716;8.790;2024-03-06T13:39:40;44.27;;;25.57;;
17251;SDS011;8742;51.716;8.790;2024-03-06T13:42:08;57.93;;;27.53;;
17251;SDS011;8742;51.716;8.790;2024-03-06T13:44:35;44.97;;;26.20;;
17251;SDS011;8742;51.716;8.790;2024-03-06T13:47:02;47.80;;;24.90;;
17251;SDS011;8742;51.716;8.790;2024-03-06T13:49:36;42.97;;;24.57;;
17251;SDS011;8742;51.716;8.790;2024-03-06T13:52:04;45.17;;;23.90;;
17251;SDS011;8742;51.716;8.790;2024-03-06T13:54:32;42.63;;;24.17;;
17251;SDS011;8742;51.716;8.790;2024-03-06T13:57:00;47.10;;;24.73;;
17251;SDS011;8742;51.716;8.790;2024-03-06T13:59:28;41.07;;;23.20;;
17251;SDS011;8742;51.716;8.790;2024-03-06T14:01:56;40.33;;;23.23;;
17251;SDS011;8742;51.716;8.790;2024-03-06T14:04:24;46.33;;;24.37;;
17251;SDS011;8742;51.716;8.790;2024-03-06T14:06:51;40.70;;;22.83;;
17251;SDS011;8742;51.716;8.790;2024-03-06T14:09:18;41.37;;;23.13;;
17251;SDS011;8742;51.716;8.790;2024-03-06T14:11:45;41.37;;;22.67;;
17251;SDS011;8742;51.716;8.790;2024-03-06T14:14:13;45.43;;;24.10;;
17251;SDS011;8742;51.716;8.790;2024-03-06T14:16:40;46.13;;;22.73;;
17251;SDS011;8742;51.716;8.790;2024-03-06T14:19:07;44.70;;;23.83;;
17251;SDS011;8742;51.716;8.790;2024-03-06T14:21:35;40.50;;;23.57;;
17251;SDS011;8742;51.716;8.790;2024-03-06T14:24:03;46.07;;;25.43;;
17251;SDS011;8742;51.716;8.790;2024-03-06T14:26:31;44.77;;;24.30;;
17251;SDS011;8742;51.716;8.790;2024-03-06T14:28:58;44.77;;;24.17;;
17251;SDS011;8742;51.716;8.790;2024-03-06T14:31:28;51.87;;;24.53;;
17251;SDS011;8742;51.716;8.790;2024-03-06T14:33:55;48.27;;;25.20;;
17251;SDS011;8742;51.716;8.790;2024-03-06T14:36:22;45.53;;;24.23;;
17251;SDS011;8742;51.716;8.790;2024-03-06T14:38:49;42.20;;;22.87;;
17251;SDS011;8742;51.716;8.790;2024-03-06T14:41:17;48.80;;;23.80;;